createdAt,value
2023-01-11T00:00:45.744Z,67.90
2023-01-11T00:03:12.653Z,67.54
2023-01-11T00:05:44.281Z,67.85
2023-01-11T00:08:11.928Z,67.86
2023-01-11T00:10:39.903Z,68.00
2023-01-11T00:13:07.232Z,67.77
2023-01-11T00:15:36.546Z,67.54
2023-01-11T00:18:03.666Z,68.02
2023-01-11T00:20:30.417Z,67.85
2023-01-11T00:22:57.281Z,67.72
2023-01-11T00:25:24.249Z,67.50
2023-01-11T00:27:51.072Z,67.67
2023-01-11T00:30:18.656Z,67.57
2023-01-11T00:32:46.009Z,67.69
2023-01-11T00:35:13.035Z,67.78
2023-01-11T00:37:40.476Z,67.75
2023-01-11T00:40:08.341Z,67.61
2023-01-11T00:42:53.455Z,67.72
2023-01-11T00:45:38.473Z,67.55
2023-01-11T00:48:07.008Z,67.70
2023-01-11T00:50:37.639Z,67.50
2023-01-11T00:53:05.506Z,67.83
2023-01-11T00:55:32.761Z,67.89
2023-01-11T00:58:00.400Z,67.60
2023-01-11T01:00:28.493Z,67.76
2023-01-11T01:02:55.346Z,67.73
2023-01-11T01:05:22.258Z,67.39
2023-01-11T01:07:49.315Z,67.50
2023-01-11T01:10:18.294Z,67.82
2023-01-11T01:13:04.728Z,67.56
2023-01-11T01:15:32.570Z,67.52
2023-01-11T01:17:59.468Z,67.58
2023-01-11T01:20:26.841Z,67.67
2023-01-11T01:22:53.640Z,67.51
2023-01-11T01:25:20.550Z,67.35
2023-01-11T01:27:47.357Z,67.67
2023-01-11T01:30:14.467Z,67.85
2023-01-11T01:32:41.260Z,67.81
2023-01-11T01:35:08.844Z,67.33
2023-01-11T01:37:35.621Z,67.48
2023-01-11T01:40:02.609Z,67.77
2023-01-11T01:42:29.377Z,67.54
2023-01-11T01:45:18.291Z,67.54
2023-01-11T01:47:51.868Z,67.48
2023-01-11T01:50:28.333Z,67.73
2023-01-11T01:53:06.212Z,67.69
2023-01-11T01:55:39.390Z,67.67
2023-01-11T01:58:13.787Z,67.56
2023-01-11T02:00:42.810Z,67.83
2023-01-11T02:03:13.796Z,67.80
2023-01-11T02:05:40.572Z,67.82
2023-01-11T02:08:17.909Z,68.05
2023-01-11T02:10:44.727Z,67.97
2023-01-11T02:13:14.296Z,67.67
2023-01-11T02:15:41.546Z,67.67
2023-01-11T02:18:13.808Z,67.90
2023-01-11T02:20:43.095Z,67.95
2023-01-11T02:23:25.642Z,67.86
2023-01-11T02:26:15.106Z,67.77
2023-01-11T02:28:49.641Z,67.79
2023-01-11T02:31:35.798Z,68.11
2023-01-11T02:34:27.992Z,67.86
2023-01-11T02:37:29.296Z,68.19
2023-01-11T02:40:08.883Z,67.96
2023-01-11T02:43:14.635Z,67.75
2023-01-11T02:46:24.258Z,68.16
2023-01-11T02:49:36.740Z,68.28
2023-01-11T02:52:12.933Z,68.18
2023-01-11T02:54:43.333Z,67.97
2023-01-11T02:57:12.433Z,68.50
2023-01-11T02:59:40.683Z,68.21
2023-01-11T03:02:07.463Z,68.16
2023-01-11T03:04:39.668Z,68.06
2023-01-11T03:07:33.714Z,67.95
2023-01-11T03:10:25.214Z,68.00
2023-01-11T03:13:16.267Z,68.18
2023-01-11T03:16:04.393Z,68.33
2023-01-11T03:18:53.278Z,68.18
2023-01-11T03:21:48.816Z,68.19
2023-01-11T03:24:45.834Z,68.32
2023-01-11T03:27:54.999Z,68.24
2023-01-11T03:30:55.589Z,68.49
2023-01-11T03:33:52.660Z,68.35
2023-01-11T03:36:51.395Z,68.46
2023-01-11T03:39:28.285Z,68.38
2023-01-11T03:42:00.130Z,68.55
2023-01-11T03:44:34.051Z,68.50
2023-01-11T03:47:10.304Z,68.13
2023-01-11T03:49:52.610Z,68.22
2023-01-11T03:52:29.070Z,68.62
2023-01-11T03:54:58.916Z,68.28
2023-01-11T03:57:33.819Z,68.29
2023-01-11T04:00:00.989Z,68.64
2023-01-11T04:02:34.763Z,68.38
2023-01-11T04:05:02.725Z,68.64
2023-01-11T04:07:29.619Z,68.52
2023-01-11T04:09:58.430Z,68.49
2023-01-11T04:12:25.809Z,68.41
2023-01-11T04:14:52.774Z,68.30
2023-01-11T04:17:19.725Z,68.40
2023-01-11T04:19:47.170Z,68.22
2023-01-11T04:22:14.000Z,68.25
2023-01-11T04:24:40.775Z,68.40
2023-01-11T04:27:07.559Z,68.21
2023-01-11T04:29:34.334Z,68.17
2023-01-11T04:32:01.277Z,68.33
2023-01-11T04:34:28.063Z,68.46
2023-01-11T04:36:54.854Z,68.40
2023-01-11T04:39:21.644Z,68.33
2023-01-11T04:42:06.861Z,68.68
2023-01-11T04:44:33.634Z,68.33
2023-01-11T04:47:00.416Z,68.38
2023-01-11T04:49:27.180Z,68.47
2023-01-11T04:51:53.970Z,68.25
2023-01-11T04:54:20.739Z,68.24
2023-01-11T04:56:47.523Z,68.10
2023-01-11T04:59:14.486Z,68.37
2023-01-11T05:01:41.272Z,68.24
2023-01-11T05:04:08.068Z,67.97
2023-01-11T05:06:34.893Z,68.17
2023-01-11T05:09:01.728Z,68.48
2023-01-11T05:11:28.517Z,68.39
2023-01-11T05:13:55.280Z,68.14
2023-01-11T05:16:24.180Z,68.29
2023-01-11T05:18:57.360Z,68.32
2023-01-11T05:21:36.925Z,68.24
2023-01-11T05:24:07.057Z,68.23
2023-01-11T05:26:36.972Z,68.25
2023-01-11T05:29:07.999Z,68.27
2023-01-11T05:31:37.191Z,68.38
2023-01-11T05:34:04.242Z,68.75
2023-01-11T05:36:31.074Z,68.28
2023-01-11T05:38:57.853Z,68.68
2023-01-11T05:41:27.248Z,68.73
2023-01-11T05:44:14.321Z,68.72
2023-01-11T05:46:43.227Z,68.87
2023-01-11T05:49:12.200Z,68.79
2023-01-11T05:51:40.075Z,68.86
2023-01-11T05:54:13.241Z,68.91
2023-01-11T05:56:40.513Z,68.97
2023-01-11T05:59:07.261Z,68.93
2023-01-11T06:01:34.567Z,68.72
2023-01-11T06:04:01.675Z,68.80
2023-01-11T06:06:28.655Z,68.74
2023-01-11T06:08:55.490Z,68.97
2023-01-11T06:11:22.266Z,68.98
2023-01-11T06:13:49.072Z,69.01
2023-01-11T06:16:19.314Z,69.00
2023-01-11T06:18:50.248Z,69.26
2023-01-11T06:21:18.260Z,69.06
2023-01-11T06:23:50.469Z,69.13
2023-01-11T06:26:20.944Z,69.00
2023-01-11T06:28:48.341Z,69.16
2023-01-11T06:31:17.337Z,69.12
2023-01-11T06:33:45.055Z,69.16
2023-01-11T06:36:13.420Z,69.18
2023-01-11T06:38:40.789Z,69.45
2023-01-11T06:41:08.680Z,69.42
2023-01-11T06:43:37.339Z,69.48
2023-01-11T06:46:05.140Z,69.56
2023-01-11T06:48:31.967Z,69.59
2023-01-11T06:50:59.445Z,69.60
2023-01-11T06:53:29.035Z,69.85
2023-01-11T06:55:57.944Z,69.70
2023-01-11T06:58:26.036Z,69.54
2023-01-11T07:00:55.552Z,70.08
2023-01-11T07:03:24.395Z,70.22
2023-01-11T07:05:52.940Z,70.12
2023-01-11T07:08:20.578Z,70.20
2023-01-11T07:10:48.029Z,69.86
2023-01-11T07:13:17.087Z,70.12
2023-01-11T07:15:50.083Z,70.32
2023-01-11T07:18:18.588Z,70.19
2023-01-11T07:20:45.341Z,70.26
2023-01-11T07:23:12.160Z,70.33
2023-01-11T07:25:39.219Z,70.45
2023-01-11T07:28:08.348Z,70.54
2023-01-11T07:30:56.065Z,70.45
2023-01-11T07:33:24.125Z,70.51
2023-01-11T07:35:50.922Z,70.68
2023-01-11T07:38:17.728Z,70.45
2023-01-11T07:40:44.679Z,70.53
2023-01-11T07:43:18.169Z,70.69
2023-01-11T07:45:51.146Z,70.73
2023-01-11T07:48:24.485Z,70.54
2023-01-11T07:50:54.109Z,70.68
2023-01-11T07:53:21.076Z,70.77
2023-01-11T07:55:47.890Z,70.79
2023-01-11T07:58:15.394Z,70.74
2023-01-11T08:00:42.197Z,70.74
2023-01-11T08:03:09.772Z,70.84
2023-01-11T08:05:36.693Z,70.84
2023-01-11T08:08:04.482Z,70.79
2023-01-11T08:10:31.550Z,71.01
2023-01-11T08:13:16.995Z,70.91
2023-01-11T08:15:44.024Z,70.82
2023-01-11T08:18:12.457Z,71.05
2023-01-11T08:20:40.558Z,70.91
2023-01-11T08:23:09.898Z,70.86
2023-01-11T08:25:37.399Z,70.82
2023-01-11T08:28:06.423Z,71.01
2023-01-11T08:30:33.718Z,71.19
2023-01-11T08:33:02.071Z,71.01
2023-01-11T08:35:30.558Z,71.14
2023-01-11T08:37:57.419Z,71.20
2023-01-11T08:40:25.504Z,71.34
2023-01-11T08:42:56.917Z,71.27
2023-01-11T08:45:24.578Z,71.30
2023-01-11T08:47:51.953Z,71.34
2023-01-11T08:50:19.672Z,71.23
2023-01-11T08:52:47.570Z,71.52
2023-01-11T08:55:14.363Z,71.67
2023-01-11T08:57:41.159Z,71.46
2023-01-11T09:00:09.027Z,71.34
2023-01-11T09:02:35.986Z,71.40
2023-01-11T09:05:02.843Z,71.52
2023-01-11T09:07:29.672Z,71.55
2023-01-11T09:09:56.436Z,71.59
2023-01-11T09:12:23.295Z,71.16
2023-01-11T09:14:50.169Z,71.53
2023-01-11T09:17:16.960Z,71.59
2023-01-11T09:19:43.703Z,71.57
2023-01-11T09:22:10.498Z,71.46
2023-01-11T09:24:37.293Z,71.29
2023-01-11T09:27:04.904Z,71.44
2023-01-11T09:29:32.446Z,71.69
2023-01-11T09:31:59.422Z,71.63
2023-01-11T09:34:27.330Z,71.34
2023-01-11T09:36:56.086Z,71.72
2023-01-11T09:39:26.212Z,71.71
2023-01-11T09:42:26.991Z,71.45
2023-01-11T09:44:59.589Z,71.64
2023-01-11T09:48:04.851Z,71.63
2023-01-11T09:50:41.108Z,71.81
2023-01-11T09:53:28.047Z,71.74
2023-01-11T09:55:58.027Z,71.73
2023-01-11T09:58:49.692Z,71.77
2023-01-11T10:01:31.465Z,71.78
2023-01-11T10:04:23.937Z,71.82
2023-01-11T10:07:22.968Z,71.78
2023-01-11T10:18:25.374Z,72.06
2023-01-11T10:20:15.184Z,71.86
2023-01-11T10:22:48.828Z,72.11
2023-01-11T10:25:34.935Z,71.78
2023-01-11T10:28:14.987Z,71.52
2023-01-11T10:31:01.253Z,71.79
2023-01-11T10:34:06.144Z,71.77
2023-01-11T10:37:07.940Z,71.62
2023-01-11T10:40:34.933Z,71.89
2023-01-11T10:43:04.749Z,71.71
2023-01-11T10:45:50.673Z,71.70
2023-01-11T10:48:33.886Z,71.73
2023-01-11T10:51:15.034Z,71.52
2023-01-11T10:54:02.989Z,71.49
2023-01-11T10:57:14.143Z,71.55
2023-01-11T11:00:18.686Z,71.71
2023-01-11T11:03:10.131Z,71.72
2023-01-11T11:05:55.022Z,71.61
2023-01-11T11:08:46.610Z,71.50
2023-01-11T11:11:21.803Z,71.58
2023-01-11T11:14:18.476Z,71.54
2023-01-11T11:17:18.187Z,71.54
2023-01-11T11:19:45.020Z,71.34
2023-01-11T11:22:12.890Z,71.51
2023-01-11T11:24:52.196Z,71.46
2023-01-11T11:27:45.961Z,71.22
2023-01-11T11:30:15.514Z,71.37
2023-01-11T11:32:55.792Z,71.22
2023-01-11T11:35:40.740Z,71.26
2023-01-11T11:38:20.411Z,71.34
2023-01-11T11:41:05.203Z,71.34
2023-01-11T11:43:34.690Z,71.34
2023-01-11T11:46:04.762Z,71.22
2023-01-11T11:48:34.121Z,71.60
2023-01-11T11:51:07.222Z,71.52
2023-01-11T11:53:46.018Z,71.78
2023-01-11T11:56:31.405Z,71.89
2023-01-11T11:58:59.450Z,71.83
2023-01-11T12:01:36.223Z,71.97
2023-01-11T12:04:29.832Z,71.94
2023-01-11T12:07:30.403Z,72.15
2023-01-11T12:09:58.982Z,72.20
2023-01-11T12:12:28.576Z,72.31
2023-01-11T12:15:19.668Z,72.37
2023-01-11T12:17:47.519Z,72.29
2023-01-11T12:20:23.380Z,72.35
2023-01-11T12:22:51.345Z,72.50
2023-01-11T12:25:23.016Z,72.43
2023-01-11T12:28:01.961Z,72.38
2023-01-11T12:31:05.035Z,72.46
2023-01-11T12:34:17.362Z,72.56
2023-01-11T12:37:01.953Z,72.53
2023-01-11T12:39:52.004Z,72.77
2023-01-11T12:43:09.038Z,72.66
2023-01-11T12:46:12.234Z,72.95
2023-01-11T12:49:03.192Z,72.78
2023-01-11T12:52:14.788Z,72.89
2023-01-11T12:55:15.081Z,72.87
2023-01-11T12:58:08.207Z,72.84
2023-01-11T13:01:09.618Z,72.78
2023-01-11T13:04:35.191Z,73.01
2023-01-11T13:07:36.241Z,73.08
2023-01-11T13:10:29.717Z,73.07
2023-01-11T13:13:15.209Z,72.97
2023-01-11T13:16:07.362Z,73.18
2023-01-11T13:18:51.295Z,73.21
2023-01-11T13:21:43.042Z,73.27
2023-01-11T13:24:18.582Z,73.26
2023-01-11T13:26:50.475Z,73.28
2023-01-11T13:29:27.582Z,73.43
2023-01-11T13:31:58.855Z,73.45
2023-01-11T13:34:38.665Z,73.15
2023-01-11T13:37:20.116Z,73.37
2023-01-11T13:40:32.615Z,73.42
2023-01-11T13:43:07.724Z,73.43
2023-01-11T13:45:44.441Z,73.25
2023-01-11T13:48:27.427Z,73.40
2023-01-11T13:51:44.282Z,73.27
2023-01-11T13:54:20.714Z,73.56
2023-01-11T13:56:58.356Z,73.67
2023-01-11T13:59:35.454Z,73.30
2023-01-11T14:02:40.633Z,73.31
2023-01-11T14:05:21.239Z,73.24
2023-01-11T14:08:32.380Z,73.23
2023-01-11T14:11:19.359Z,73.16
2023-01-11T14:14:37.764Z,73.30
2023-01-11T14:17:22.623Z,73.33
2023-01-11T14:19:57.420Z,73.34
2023-01-11T14:23:08.582Z,73.34
2023-01-11T14:26:02.088Z,73.29
2023-01-11T14:29:03.435Z,73.20
2023-01-11T14:31:30.148Z,73.22
2023-01-11T14:34:10.904Z,73.23
2023-01-11T14:37:10.925Z,73.03
2023-01-11T14:40:22.824Z,73.01
2023-01-11T14:43:42.597Z,73.16
2023-01-11T14:46:31.535Z,73.12
2023-01-11T14:49:55.831Z,73.02
2023-01-11T14:52:39.042Z,72.83
2023-01-11T14:55:30.312Z,72.89
2023-01-11T14:57:56.965Z,72.85
2023-01-11T15:00:23.634Z,72.66
2023-01-11T15:03:20.832Z,72.55
2023-01-11T15:06:14.531Z,72.70
2023-01-11T15:08:54.786Z,72.50
2023-01-11T15:11:30.947Z,72.61
2023-01-11T15:14:28.472Z,72.59
2023-01-11T15:17:19.319Z,72.51
2023-01-11T15:19:47.377Z,72.41
2023-01-11T15:22:29.541Z,72.17
2023-01-11T15:25:03.109Z,72.33
2023-01-11T15:27:36.823Z,72.36
2023-01-11T15:30:09.368Z,72.14
2023-01-11T15:32:36.795Z,72.20
2023-01-11T15:35:36.267Z,72.05
2023-01-11T15:38:52.718Z,72.04
2023-01-11T15:42:12.057Z,72.03
2023-01-11T15:45:17.103Z,72.19
2023-01-11T15:48:38.246Z,72.19
2023-01-11T15:51:55.628Z,72.16
2023-01-11T15:55:29.555Z,71.81
2023-01-11T15:58:30.232Z,71.74
2023-01-11T16:01:30.226Z,71.69
2023-01-11T16:04:15.155Z,71.57
2023-01-11T16:06:53.400Z,71.52
2023-01-11T16:09:54.063Z,71.52
2023-01-11T16:12:43.568Z,71.19
2023-01-11T16:15:18.954Z,71.25
2023-01-11T16:17:48.159Z,70.95
2023-01-11T16:20:28.799Z,71.11
2023-01-11T16:23:02.997Z,70.99
2023-01-11T16:25:42.460Z,70.84
2023-01-11T16:28:17.045Z,70.54
2023-01-11T16:30:46.438Z,70.58
2023-01-11T16:33:14.709Z,70.50
2023-01-11T16:35:41.521Z,70.47
2023-01-11T16:38:18.209Z,70.14
2023-01-11T16:40:52.844Z,70.25
2023-01-11T16:43:27.078Z,69.96
2023-01-11T16:45:56.802Z,70.04
2023-01-11T16:48:29.757Z,70.20
2023-01-11T16:51:04.113Z,70.00
2023-01-11T16:53:33.532Z,69.97
2023-01-11T16:56:21.922Z,69.82
2023-01-11T16:59:15.207Z,69.82
2023-01-11T17:01:55.210Z,69.58
2023-01-11T17:04:49.571Z,69.89
2023-01-11T17:07:28.719Z,69.51
2023-01-11T17:10:27.826Z,69.54
2023-01-11T17:13:52.675Z,69.42
2023-01-11T17:16:23.832Z,69.75
2023-01-11T17:18:50.728Z,69.67
2023-01-11T17:21:26.731Z,69.74
2023-01-11T17:23:59.502Z,69.31
2023-01-11T17:26:38.114Z,69.86
2023-01-11T17:29:06.010Z,69.33
2023-01-11T17:31:36.116Z,70.10
2023-01-11T17:34:15.518Z,69.58
2023-01-11T17:36:43.501Z,69.72
2023-01-11T17:39:29.327Z,69.57
2023-01-11T17:42:16.907Z,69.85
2023-01-11T17:45:04.163Z,69.71
2023-01-11T17:47:32.467Z,69.57
2023-01-11T17:50:02.198Z,69.53
2023-01-11T17:52:53.851Z,69.76
2023-01-11T17:55:24.330Z,69.64
2023-01-11T17:58:20.692Z,69.86
2023-01-11T18:01:13.741Z,69.84
2023-01-11T18:03:58.320Z,69.56
2023-01-11T18:06:41.853Z,69.65
2023-01-11T18:09:22.406Z,69.66
2023-01-11T18:11:50.673Z,69.87
2023-01-11T18:14:30.075Z,69.32
2023-01-11T18:17:03.982Z,69.57
2023-01-11T18:19:40.832Z,70.12
2023-01-11T18:22:29.939Z,70.09
2023-01-11T18:25:04.474Z,70.17
2023-01-11T18:27:35.287Z,70.28
2023-01-11T18:30:06.519Z,70.05
2023-01-11T18:32:40.205Z,70.31
2023-01-11T18:35:18.427Z,70.32
2023-01-11T18:37:45.512Z,70.15
2023-01-11T18:40:14.799Z,70.29
2023-01-11T18:42:43.360Z,69.88
2023-01-11T18:45:11.318Z,69.81
2023-01-11T18:47:38.166Z,69.51
2023-01-11T18:50:05.766Z,69.26
2023-01-11T18:52:32.573Z,69.07
2023-01-11T18:54:59.387Z,69.09
2023-01-11T18:57:26.142Z,69.08
2023-01-11T18:59:53.307Z,69.11
2023-01-11T19:02:24.974Z,68.77
2023-01-11T19:04:54.487Z,69.01
2023-01-11T19:07:22.923Z,68.73
2023-01-11T19:09:50.476Z,69.03
2023-01-11T19:12:18.247Z,69.13
2023-01-11T19:14:45.031Z,68.98
2023-01-11T19:17:13.419Z,68.78
2023-01-11T19:19:40.513Z,68.65
2023-01-11T19:22:07.378Z,68.76
2023-01-11T19:24:34.276Z,68.87
2023-01-11T19:27:01.076Z,69.12
2023-01-11T19:29:28.249Z,68.99
2023-01-11T19:31:57.853Z,69.37
2023-01-11T19:34:24.675Z,69.25
2023-01-11T19:36:52.258Z,69.04
2023-01-11T19:39:19.555Z,68.72
2023-01-11T19:41:56.566Z,68.76
2023-01-11T19:44:30.464Z,68.98
2023-01-11T19:47:10.347Z,69.18
2023-01-11T19:49:38.779Z,69.17
2023-01-11T19:52:12.037Z,69.54
2023-01-11T19:54:43.215Z,69.80
2023-01-11T19:57:12.196Z,69.68
2023-01-11T19:59:38.961Z,69.82
2023-01-11T20:02:05.976Z,69.79
2023-01-11T20:04:33.292Z,70.09
2023-01-11T20:07:00.042Z,69.80
2023-01-11T20:09:26.840Z,69.89
2023-01-11T20:11:55.337Z,70.33
2023-01-11T20:14:22.110Z,69.93
2023-01-11T20:16:48.849Z,69.66
2023-01-11T20:19:15.711Z,70.26
2023-01-11T20:21:42.632Z,70.12
2023-01-11T20:24:13.212Z,70.08
2023-01-11T20:26:40.911Z,69.93
2023-01-11T20:29:08.223Z,70.15
2023-01-11T20:31:35.687Z,70.16
2023-01-11T20:34:13.293Z,70.00
2023-01-11T20:36:40.132Z,69.85
2023-01-11T20:39:07.169Z,70.03
2023-01-11T20:41:49.618Z,70.31
2023-01-11T20:44:29.338Z,69.90
2023-01-11T20:46:56.793Z,69.91
2023-01-11T20:49:31.238Z,70.01
2023-01-11T20:51:58.045Z,69.74
2023-01-11T20:54:24.821Z,69.97
2023-01-11T20:56:51.722Z,70.17
2023-01-11T20:59:20.066Z,69.52
2023-01-11T21:01:48.714Z,69.46
2023-01-11T21:04:17.130Z,69.76
2023-01-11T21:06:46.347Z,69.70
2023-01-11T21:09:16.424Z,69.93
2023-01-11T21:11:44.114Z,69.93
2023-01-11T21:14:13.479Z,69.67
2023-01-11T21:16:42.633Z,70.06
2023-01-11T21:19:13.184Z,70.03
2023-01-11T21:21:40.669Z,69.66
2023-01-11T21:24:08.163Z,69.57
2023-01-11T21:26:35.012Z,69.76
2023-01-11T21:29:04.852Z,69.52
2023-01-11T21:31:35.201Z,69.64
2023-01-11T21:34:02.738Z,69.81
2023-01-11T21:36:31.603Z,69.68
2023-01-11T21:38:59.790Z,69.37
2023-01-11T21:41:49.069Z,69.82
2023-01-11T21:44:17.451Z,69.56
2023-01-11T21:46:44.439Z,69.57
2023-01-11T21:49:13.095Z,69.41
2023-01-11T21:51:41.148Z,69.68
2023-01-11T21:54:15.012Z,69.55
2023-01-11T21:56:41.925Z,69.63
2023-01-11T21:59:08.905Z,69.34
2023-01-11T22:01:36.108Z,69.44
2023-01-11T22:04:13.280Z,69.66
2023-01-11T22:06:43.349Z,69.94
2023-01-11T22:09:11.761Z,69.68
2023-01-11T22:11:39.168Z,69.66
2023-01-11T22:14:08.381Z,69.34
2023-01-11T22:16:36.044Z,69.32
2023-01-11T22:19:06.083Z,69.16
2023-01-11T22:21:32.941Z,68.99
2023-01-11T22:24:00.106Z,68.99
2023-01-11T22:26:29.891Z,68.79
2023-01-11T22:29:11.788Z,68.90
2023-01-11T22:31:54.894Z,68.99
2023-01-11T22:34:23.169Z,69.00
2023-01-11T22:36:50.084Z,68.77
2023-01-11T22:39:19.474Z,69.04
2023-01-11T22:41:48.360Z,69.29
2023-01-11T22:44:15.579Z,68.95
2023-01-11T22:46:43.780Z,69.02
2023-01-11T22:49:10.926Z,68.60
2023-01-11T22:51:38.222Z,68.90
2023-01-11T22:54:05.066Z,68.70
2023-01-11T22:56:31.979Z,68.50
2023-01-11T22:58:59.061Z,68.68
2023-01-11T23:01:29.395Z,68.52
2023-01-11T23:03:57.756Z,68.50
2023-01-11T23:06:30.417Z,68.36
2023-01-11T23:08:58.687Z,68.43
2023-01-11T23:11:48.063Z,68.69
2023-01-11T23:14:19.786Z,68.59
2023-01-11T23:16:48.967Z,68.53
2023-01-11T23:19:19.556Z,68.58
2023-01-11T23:21:47.407Z,68.67
2023-01-11T23:24:16.452Z,68.46
2023-01-11T23:26:44.877Z,68.55
2023-01-11T23:29:12.241Z,68.32
2023-01-11T23:31:39.379Z,68.44
2023-01-11T23:34:08.954Z,68.45
2023-01-11T23:36:41.656Z,68.32
2023-01-11T23:39:16.166Z,68.01
2023-01-11T23:42:01.202Z,68.36
2023-01-11T23:44:28.098Z,68.15
2023-01-11T23:47:13.455Z,68.35
2023-01-11T23:49:40.280Z,68.28
2023-01-11T23:52:07.129Z,68.40
2023-01-11T23:54:34.369Z,68.17
2023-01-11T23:57:02.981Z,68.03
2023-01-11T23:59:30.360Z,67.94
